»·PEaware :: AAL2490 KPHX-KSNA

AAL2490 :: KPHX-KSNA

FLIGHT INFORMATION

Flight Status: Arrived
Operator:
American Airlines
More flights by this operator :: More flights under this callsign
Pilot: Drew L. (13237)
Aircraft: AIRBUS A321
(A321)
More flights by this aircraft type
Origin: KPHX Phoenix Sky Harbor Intl
United States
Destination: KSNA John Wayne-Orange Co
United States
More flights between these airports :: More routes between these airports
Route: +KEENS2 HRRBR EMLLD DSNEE4
File this flight plan on PilotEdge
Remarks: RMK / SIMBRIEF
Altitude:
(Current/Filed)
28,000ft
Speed:
(Current/Filed)
450kts
Departed: 07-Oct-20 02:11 PM
Arrived: 07-Oct-20 03:01 PM
Distance/Time
Traveled:
293nm/0:49
Distance/Time
To Go:
Arrived

Flight Plot

Page will automatically refresh every two minutes.

Flight plan parsing failed; only flown route is shown


Map Options




Map Legend


Flown Route
Filed Route
Departure Airport
Arrival Airport
Navaid (VOR, NDB)
Fix

Horizontal Profiles

Position Reports

Time Latitude Longitude Heading Altitude Ground
Speed
07-Oct-20 13:44 33.437547 -111.998769 270 1132ft 0kts
07-Oct-20 13:45 33.437547 -111.998769 270 1132ft 0kts
07-Oct-20 13:46 33.437547 -111.998769 270 1132ft 0kts
07-Oct-20 13:47 33.437547 -111.998769 270 1132ft 0kts
07-Oct-20 13:48 33.437547 -111.998769 270 1132ft 0kts
07-Oct-20 13:49 33.437547 -111.998769 270 1132ft 0kts
07-Oct-20 13:50 33.437547 -111.998769 270 1132ft 0kts
07-Oct-20 13:51 33.437547 -111.998769 270 1132ft 0kts
07-Oct-20 13:52 33.437547 -111.998769 270 1132ft 0kts
07-Oct-20 13:53 33.437547 -111.998769 270 1132ft 0kts
07-Oct-20 13:54 33.437547 -111.998769 270 1132ft 0kts
07-Oct-20 13:55 33.437547 -111.998769 270 1132ft 0kts
07-Oct-20 13:56 33.437547 -111.998769 270 1132ft 0kts
07-Oct-20 13:57 33.437547 -111.998769 270 1132ft 0kts
07-Oct-20 13:58 33.437547 -111.998769 270 1132ft 0kts
07-Oct-20 13:59 33.437547 -111.998769 270 1132ft 0kts
07-Oct-20 14:00 33.437547 -111.998769 270 1132ft 0kts
07-Oct-20 14:01 33.437547 -111.998768 270 1132ft 0kts
07-Oct-20 14:02 33.437444 -111.998140 320 1133ft 2kts
07-Oct-20 14:03 33.437931 -111.998054 359 1133ft 5kts
07-Oct-20 14:04 33.438129 -111.998054 359 1134ft 0kts
07-Oct-20 14:05 33.438129 -111.998054 359 1134ft 0kts
07-Oct-20 14:06 33.438160 -111.998054 359 1134ft 0kts
07-Oct-20 14:07 33.438969 -111.997355 77 1134ft 9kts
07-Oct-20 14:08 33.439016 -111.993831 90 1136ft 12kts
07-Oct-20 14:09 33.440608 -111.992308 353 1138ft 8kts
07-Oct-20 14:10 33.440862 -112.024193 270 1772ft 182kts
07-Oct-20 14:11 33.420822 -112.099607 248 2721ft 282kts
07-Oct-20 14:12 33.394012 -112.187340 256 5677ft 287kts
07-Oct-20 14:13 33.401133 -112.272271 280 8078ft 295kts
07-Oct-20 14:14 33.407824 -112.315199 279 9555ft 288kts
07-Oct-20 14:15 33.417735 -112.381198 278 10717ft 311kts
07-Oct-20 14:16 33.431188 -112.472471 278 11566ft 358kts
07-Oct-20 14:17 33.448384 -112.599070 274 12530ft 410kts
07-Oct-20 14:18 33.451853 -112.738017 269 14709ft 423kts
07-Oct-20 14:19 33.467222 -112.879781 281 16826ft 438kts
07-Oct-20 14:20 33.494369 -113.024087 281 18778ft 451kts
07-Oct-20 14:21 33.521882 -113.172309 281 20630ft 462kts
07-Oct-20 14:22 33.549790 -113.324097 281 22327ft 472kts
07-Oct-20 14:23 33.578134 -113.479179 281 23868ft 480kts
07-Oct-20 14:24 33.607301 -113.636299 281 25479ft 483kts
07-Oct-20 14:25 33.636168 -113.792088 281 27328ft 475kts
07-Oct-20 14:26 33.678789 -113.941851 293 27874ft 476kts
07-Oct-20 14:27 33.734510 -114.085537 292 27874ft 475kts
07-Oct-20 14:28 33.768763 -114.237569 277 27874ft 472kts
07-Oct-20 14:29 33.786677 -114.394050 276 27874ft 472kts
07-Oct-20 14:30 33.804625 -114.550228 276 27874ft 472kts
07-Oct-20 14:31 33.822442 -114.706409 276 27875ft 472kts
07-Oct-20 14:32 33.840175 -114.863428 276 27874ft 472kts
07-Oct-20 14:33 33.857540 -115.019602 276 27875ft 470kts
07-Oct-20 14:34 33.874589 -115.174196 276 27876ft 462kts
07-Oct-20 14:35 33.891231 -115.326507 276 27866ft 459kts
07-Oct-20 14:36 33.907759 -115.479303 276 27842ft 460kts
07-Oct-20 14:37 33.924066 -115.631882 276 27829ft 460kts
07-Oct-20 14:38 33.935483 -115.785304 273 27835ft 460kts
07-Oct-20 14:39 33.946266 -115.938825 273 27489ft 458kts
07-Oct-20 14:40 33.956728 -116.089123 273 26494ft 453kts
07-Oct-20 14:41 33.959599 -116.240737 262 25426ft 456kts
07-Oct-20 14:42 33.941227 -116.390928 260 22895ft 439kts
07-Oct-20 14:43 33.923746 -116.531808 260 20933ft 412kts
07-Oct-20 14:44 33.906782 -116.664028 259 19120ft 388kts
07-Oct-20 14:45 33.891007 -116.789558 260 17466ft 366kts
07-Oct-20 14:46 33.878236 -116.908546 260 15712ft 352kts
07-Oct-20 14:47 33.865608 -117.023425 259 13236ft 340kts
07-Oct-20 14:48 33.853345 -117.133713 258 11130ft 323kts
07-Oct-20 14:49 33.841592 -117.238488 258 10072ft 293kts
07-Oct-20 14:50 33.831030 -117.331901 259 9024ft 275kts
07-Oct-20 14:51 33.820879 -117.421289 260 8013ft 252kts
07-Oct-20 14:52 33.803231 -117.493746 247 7827ft 206kts
07-Oct-20 14:53 33.796656 -117.557374 265 7605ft 195kts
07-Oct-20 14:54 33.792568 -117.622363 261 6409ft 193kts
07-Oct-20 14:55 33.783679 -117.683756 251 4801ft 180kts
07-Oct-20 14:56 33.770065 -117.740106 251 3189ft 169kts
07-Oct-20 14:57 33.756667 -117.794835 250 2525ft 170kts
07-Oct-20 14:58 33.731729 -117.833600 205 1220ft 144kts
07-Oct-20 14:59 33.695895 -117.856006 207 415ft 143kts
07-Oct-20 15:00 33.670159 -117.872271 185 65ft 25kts
07-Oct-20 15:01 33.669011 -117.871435 121 65ft 3kts
07-Oct-20 15:02 33.672440 -117.867902 28 65ft 20kts
07-Oct-20 15:03 33.677248 -117.864468 28 65ft 20kts
07-Oct-20 15:04 33.679439 -117.862605 117 65ft 4kts
07-Oct-20 15:05 33.679333 -117.862349 116 65ft 0kts

Navigation Log

Ident Type
Flight plan parsing failed, navigation log unavailable